Wetterdaten: Woche 27.07.20 - 02.08.20 (KW31)
Datum Zeit Temp. Aussen Temp. o. S. Temp +5cm Feuchte Auss Luftdruck Regen Sonnenschein Regendauer Solar Windben Empfang
27.07.2020 00:00 17,2 C 16,1 C 15,3 C 86 % 1016,5 hPa 0,0 l/m 0,00 h 0,00 h 0 W/m 2,2 km/h (1 Bft) 99,00 %
27.07.2020 01:00 16,8 C 15,6 C 15,2 C 87 % 1016,6 hPa 0,0 l/m 0,00 h 0,00 h 0 W/m 5,1 km/h (1 Bft) 98,22 %
27.07.2020 02:00 16,3 C 15,1 C 14,6 C 86 % 1016,7 hPa 0,0 l/m 0,00 h 0,00 h 0 W/m 4,0 km/h (1 Bft) 95,31 %
27.07.2020 03:00 15,9 C 15,0 C 14,8 C 86 % 1016,6 hPa 0,0 l/m 0,00 h 0,00 h 0 W/m 6,4 km/h (2 Bft) 97,93 %
27.07.2020 04:00 15,9 C 14,8 C 14,7 C 85 % 1016,6 hPa 0,0 l/m 0,00 h 0,00 h 0 W/m 7,3 km/h (2 Bft) 96,79 %
27.07.2020 05:00 15,6 C 14,4 C 14,2 C 84 % 1016,4 hPa 0,0 l/m 0,00 h 0,00 h 4 W/m 6,4 km/h (2 Bft) 98,01 %
27.07.2020 06:00 15,3 C 14,3 C 14,0 C 86 % 1016,4 hPa 0,0 l/m 0,00 h 0,00 h 21 W/m 8,5 km/h (2 Bft) 97,69 %
27.07.2020 07:00 15,2 C 15,0 C 14,6 C 88 % 1016,2 hPa 0,0 l/m 0,03 h 0,00 h 58 W/m 9,5 km/h (2 Bft) 95,05 %
27.07.2020 08:00 15,9 C 15,7 C 15,1 C 88 % 1016,0 hPa 0,0 l/m 0,00 h 0,37 h 78 W/m 8,7 km/h (2 Bft) 95,59 %
27.07.2020 09:00 16,9 C 16,9 C 15,5 C 88 % 1015,5 hPa 0,0 l/m 0,00 h 0,03 h 133 W/m 12,8 km/h (3 Bft) 95,58 %
27.07.2020 10:00 17,8 C 16,3 C 15,4 C 87 % 1015,5 hPa 0,2 l/m 0,00 h 0,80 h 94 W/m 10,1 km/h (2 Bft) 95,03 %
27.07.2020 11:00 17,7 C 16,9 C 15,7 C 91 % 1014,8 hPa 0,2 l/m 0,00 h 0,43 h 156 W/m 8,9 km/h (2 Bft) 99,43 %
27.07.2020 12:00 19,4 C 22,6 C 19,5 C 87 % 1013,8 hPa 0,0 l/m 0,50 h 0,00 h 453 W/m 12,4 km/h (3 Bft) 98,27 %
27.07.2020 13:00 23,5 C 27,4 C 23,3 C 70 % 1012,9 hPa 0,2 l/m 0,67 h 0,00 h 671 W/m 16,9 km/h (3 Bft) 95,48 %
27.07.2020 14:00 25,0 C 26,4 C 23,9 C 63 % 1011,9 hPa 0,0 l/m 0,20 h 0,00 h 311 W/m 14,4 km/h (3 Bft) 99,79 %
27.07.2020 15:00 25,8 C 26,8 C 24,3 C 56 % 1010,9 hPa 0,0 l/m 0,03 h 0,03 h 279 W/m 12,6 km/h (3 Bft) 98,09 %
27.07.2020 16:00 27,0 C 28,1 C 25,2 C 51 % 1009,8 hPa 0,0 l/m 0,30 h 0,00 h 289 W/m 12,7 km/h (3 Bft) 95,96 %
27.07.2020 17:00 28,2 C 29,3 C 26,1 C 48 % 1008,6 hPa 0,0 l/m 0,53 h 0,00 h 309 W/m 14,7 km/h (3 Bft) 96,49 %
27.07.2020 18:00 28,3 C 27,8 C 25,6 C 47 % 1007,6 hPa 0,0 l/m 0,00 h 0,00 h 136 W/m 13,9 km/h (3 Bft) 98,96 %
27.07.2020 19:00 28,1 C 27,1 C 25,0 C 49 % 1006,8 hPa 0,0 l/m 0,00 h 0,00 h 67 W/m 6,3 km/h (2 Bft) 96,79 %
27.07.2020 20:00 27,5 C 26,0 C 23,0 C 54 % 1006,6 hPa 0,0 l/m 0,00 h 0,00 h 47 W/m 2,3 km/h (1 Bft) 96,10 %
27.07.2020 21:00 26,5 C 24,6 C 22,0 C 56 % 1006,7 hPa 0,0 l/m 0,00 h 0,00 h 11 W/m 5,1 km/h (1 Bft) 99,43 %
27.07.2020 22:00 25,5 C 23,8 C 21,6 C 57 % 1006,7 hPa 0,0 l/m 0,00 h 0,00 h 0 W/m 4,8 km/h (1 Bft) 97,00 %
27.07.2020 23:00 24,4 C 22,4 C 21,4 C 58 % 1007,0 hPa 0,0 l/m 0,00 h 0,00 h 0 W/m 9,0 km/h (2 Bft) 94,45 %
28.07.2020 00:00 21,8 C 18,7 C 18,5 C 66 % 1007,8 hPa 0,0 l/m 0,00 h 0,00 h 0 W/m 3,4 km/h (1 Bft) 98,81 %
28.07.2020 01:00 19,6 C 17,3 C 17,1 C 73 % 1008,2 hPa 0,0 l/m 0,00 h 0,00 h 0 W/m 2,0 km/h (1 Bft) 94,51 %
28.07.2020 02:00 19,0 C 18,3 C 17,9 C 78 % 1008,3 hPa 0,0 l/m 0,00 h 0,00 h 0 W/m 8,7 km/h (2 Bft) 93,86 %
28.07.2020 03:00 19,5 C 18,3 C 18,0 C 79 % 1008,3 hPa 0,0 l/m 0,00 h 0,00 h 0 W/m 10,6 km/h (2 Bft) 98,72 %
28.07.2020 04:00 19,0 C 17,8 C 17,7 C 81 % 1008,8 hPa 0,0 l/m 0,00 h 0,00 h 0 W/m 12,2 km/h (3 Bft) 95,32 %
28.07.2020 05:00 18,6 C 17,6 C 17,3 C 83 % 1009,3 hPa 0,0 l/m 0,00 h 0,00 h 0 W/m 12,1 km/h (2 Bft) 97,73 %
28.07.2020 06:00 18,7 C 17,8 C 17,3 C 83 % 1009,6 hPa 0,0 l/m 0,00 h 0,00 h 16 W/m 11,5 km/h (2 Bft) 97,35 %
28.07.2020 07:00 18,7 C 18,1 C 17,6 C 84 % 1010,0 hPa 0,0 l/m 0,00 h 0,00 h 40 W/m 14,1 km/h (3 Bft) 95,97 %
28.07.2020 08:00 19,5 C 20,3 C 19,0 C 84 % 1010,4 hPa 0,0 l/m 0,03 h 0,00 h 136 W/m 15,9 km/h (3 Bft) 99,08 %
28.07.2020 09:00 20,6 C 21,4 C 21,5 C 79 % 1010,8 hPa 0,0 l/m 0,23 h 0,03 h 228 W/m 14,4 km/h (3 Bft) 96,15 %
28.07.2020 10:00 21,7 C 24,9 C 24,7 C 76 % 1011,2 hPa 0,0 l/m 0,87 h 0,00 h 627 W/m 15,6 km/h (3 Bft) 97,89 %
28.07.2020 11:00 21,8 C 21,8 C 21,4 C 71 % 1011,7 hPa 0,0 l/m 0,10 h 0,03 h 227 W/m 13,6 km/h (3 Bft) 97,53 %
28.07.2020 12:00 22,8 C 27,1 C 22,8 C 68 % 1012,4 hPa 0,0 l/m 0,93 h 0,00 h 859 W/m 15,6 km/h (3 Bft) 95,12 %
28.07.2020 13:00 24,2 C 27,3 C 23,9 C 62 % 1012,6 hPa 0,0 l/m 0,73 h 0,00 h 770 W/m 17,2 km/h (3 Bft) 99,19 %
28.07.2020 14:00 24,3 C 26,0 C 24,3 C 59 % 1012,8 hPa 0,0 l/m 0,23 h 0,00 h 435 W/m 15,8 km/h (3 Bft) 97,45 %
28.07.2020 15:00 23,4 C 24,8 C 22,9 C 59 % 1013,3 hPa 0,0 l/m 0,30 h 0,00 h 430 W/m 16,4 km/h (3 Bft) 95,70 %
28.07.2020 16:00 24,0 C 25,5 C 23,3 C 52 % 1013,7 hPa 0,0 l/m 0,73 h 0,00 h 492 W/m 14,6 km/h (3 Bft) 98,59 %
28.07.2020 17:00 23,7 C 24,2 C 22,7 C 52 % 1014,0 hPa 0,0 l/m 0,33 h 0,00 h 326 W/m 14,0 km/h (3 Bft) 97,26 %
28.07.2020 18:00 23,1 C 22,5 C 21,4 C 56 % 1014,3 hPa 0,0 l/m 0,30 h 0,00 h 201 W/m 12,9 km/h (3 Bft) 96,54 %
28.07.2020 19:00 22,1 C 21,1 C 20,1 C 63 % 1014,7 hPa 0,0 l/m 0,20 h 0,00 h 127 W/m 8,5 km/h (2 Bft) 97,72 %
28.07.2020 20:00 20,7 C 19,4 C 19,2 C 65 % 1015,2 hPa 0,0 l/m 0,13 h 0,00 h 46 W/m 10,7 km/h (2 Bft) 98,36 %
28.07.2020 21:00 19,1 C 17,2 C 17,3 C 70 % 1016,2 hPa 0,0 l/m 0,00 h 0,00 h 8 W/m 8,3 km/h (2 Bft) 97,36 %
28.07.2020 22:00 17,9 C 16,7 C 16,7 C 72 % 1016,8 hPa 0,0 l/m 0,00 h 0,00 h 0 W/m 4,3 km/h (1 Bft) 96,16 %
28.07.2020 23:00 17,5 C 16,6 C 16,7 C 70 % 1017,1 hPa 0,0 l/m 0,00 h 0,00 h 0 W/m 5,6 km/h (1 Bft) 98,08 %
29.07.2020 00:00 17,2 C 15,7 C 15,8 C 70 % 1017,3 hPa 0,0 l/m 0,00 h 0,00 h 0 W/m 4,5 km/h (1 Bft) 98,36 %
29.07.2020 01:00 16,4 C 14,7 C 14,7 C 71 % 1017,4 hPa 0,0 l/m 0,00 h 0,00 h 0 W/m 3,3 km/h (1 Bft) 97,52 %
29.07.2020 02:00 15,9 C 15,1 C 14,9 C 72 % 1017,5 hPa 0,0 l/m 0,00 h 0,00 h 0 W/m 4,6 km/h (1 Bft) 94,16 %
29.07.2020 03:00 16,0 C 14,7 C 14,7 C 74 % 1017,5 hPa 0,0 l/m 0,00 h 0,00 h 0 W/m 6,6 km/h (2 Bft) 98,79 %
29.07.2020 04:00 15,3 C 13,7 C 13,8 C 78 % 1017,7 hPa 0,0 l/m 0,00 h 0,00 h 0 W/m 5,7 km/h (1 Bft) 97,61 %
29.07.2020 05:00 14,5 C 12,9 C 13,2 C 83 % 1018,1 hPa 0,0 l/m 0,00 h 0,00 h 0 W/m 4,7 km/h (1 Bft) 97,22 %
29.07.2020 06:00 14,1 C 13,2 C 13,2 C 86 % 1018,6 hPa 0,0 l/m 0,00 h 0,00 h 17 W/m 8,6 km/h (2 Bft) 97,27 %
29.07.2020 07:00 14,3 C 13,8 C 13,6 C 87 % 1019,2 hPa 0,0 l/m 0,00 h 0,00 h 37 W/m 10,2 km/h (2 Bft) 96,37 %
29.07.2020 08:00 15,1 C 18,0 C 15,3 C 87 % 1019,8 hPa 0,0 l/m 0,13 h 0,00 h 97 W/m 8,7 km/h (2 Bft) 98,29 %
29.07.2020 09:00 18,8 C 23,4 C 27,3 C 73 % 1020,3 hPa 0,0 l/m 1,00 h 0,00 h 500 W/m 9,4 km/h (2 Bft) 97,08 %
29.07.2020 10:00 20,9 C 23,6 C 26,0 C 64 % 1020,5 hPa 0,0 l/m 0,87 h 0,00 h 631 W/m 12,4 km/h (3 Bft) 97,79 %
29.07.2020 11:00 20,2 C 22,1 C 20,6 C 62 % 1020,6 hPa 0,0 l/m 0,33 h 0,00 h 385 W/m 12,8 km/h (3 Bft) 98,94 %
29.07.2020 12:00 21,1 C 22,8 C 21,5 C 60 % 1020,7 hPa 0,0 l/m 0,07 h 0,00 h 350 W/m 11,3 km/h (2 Bft) 94,41 %
29.07.2020 13:00 22,3 C 24,8 C 22,4 C 57 % 1020,8 hPa 0,0 l/m 0,20 h 0,00 h 426 W/m 11,8 km/h (2 Bft) 98,44 %
29.07.2020 14:00 23,7 C 28,1 C 24,9 C 54 % 1020,5 hPa 0,0 l/m 0,80 h 0,00 h 793 W/m 11,7 km/h (2 Bft) 99,15 %
29.07.2020 15:00 24,5 C 27,4 C 23,0 C 52 % 1020,3 hPa 0,0 l/m 0,87 h 0,00 h 716 W/m 11,2 km/h (2 Bft) 95,94 %
29.07.2020 16:00 25,2 C 29,0 C 23,6 C 51 % 1020,0 hPa 0,0 l/m 1,00 h 0,00 h 756 W/m 10,3 km/h (2 Bft) 96,89 %
29.07.2020 17:00 25,4 C 27,3 C 23,5 C 51 % 1019,8 hPa 0,0 l/m 0,97 h 0,00 h 579 W/m 10,8 km/h (2 Bft) 98,33 %
29.07.2020 18:00 25,3 C 26,0 C 22,3 C 51 % 1019,8 hPa 0,0 l/m 1,00 h 0,00 h 412 W/m 7,7 km/h (2 Bft) 97,56 %
29.07.2020 19:00 23,7 C 22,1 C 20,6 C 53 % 1019,7 hPa 0,0 l/m 0,47 h 0,00 h 152 W/m 8,8 km/h (2 Bft) 96,43 %
29.07.2020 20:00 21,5 C 19,5 C 18,9 C 58 % 1019,8 hPa 0,0 l/m 0,00 h 0,00 h 33 W/m 6,0 km/h (2 Bft) 97,74 %
29.07.2020 21:00 19,8 C 17,2 C 17,0 C 64 % 1020,2 hPa 0,0 l/m 0,00 h 0,00 h 9 W/m 3,3 km/h (1 Bft) 98,12 %
29.07.2020 22:00 18,1 C 15,9 C 15,7 C 67 % 1020,6 hPa 0,0 l/m 0,00 h 0,00 h 0 W/m 2,9 km/h (1 Bft) 98,33 %
29.07.2020 23:00 16,9 C 15,2 C 14,8 C 70 % 1020,8 hPa 0,0 l/m 0,00 h 0,00 h 0 W/m 1,8 km/h (1 Bft) 95,12 %
30.07.2020 00:00 16,0 C 14,0 C 13,8 C 72 % 1020,9 hPa 0,0 l/m 0,00 h 0,00 h 0 W/m 0,6 km/h (0 Bft) 98,12 %
30.07.2020 01:00 15,2 C 13,3 C 13,0 C 75 % 1021,1 hPa 0,0 l/m 0,00 h 0,00 h 0 W/m 0,1 km/h (0 Bft) 99,13 %
30.07.2020 02:00 14,4 C 12,7 C 12,4 C 78 % 1021,1 hPa 0,0 l/m 0,00 h 0,00 h 0 W/m 0,0 km/h (0 Bft) 96,38 %
30.07.2020 03:00 13,8 C 11,8 C 11,6 C 80 % 1021,0 hPa 0,0 l/m 0,00 h 0,00 h 0 W/m 0,0 km/h (0 Bft) 95,21 %
30.07.2020 04:00 12,9 C 11,0 C 10,8 C 82 % 1021,1 hPa 0,0 l/m 0,00 h 0,00 h 0 W/m 0,0 km/h (0 Bft) 97,07 %
30.07.2020 05:00 12,3 C 10,6 C 10,6 C 85 % 1021,2 hPa 0,0 l/m 0,00 h 0,00 h 0 W/m 0,0 km/h (0 Bft) 96,71 %
30.07.2020 06:00 12,0 C 11,1 C 10,8 C 89 % 1021,4 hPa 0,0 l/m 0,00 h 0,00 h 14 W/m 0,1 km/h (0 Bft) 97,19 %
30.07.2020 07:00 12,4 C 12,9 C 12,1 C 92 % 1021,5 hPa 0,0 l/m 0,00 h 0,00 h 33 W/m 1,7 km/h (1 Bft) 97,20 %
30.07.2020 08:00 14,1 C 18,6 C 14,3 C 93 % 1021,7 hPa 0,0 l/m 0,13 h 0,00 h 94 W/m 3,1 km/h (1 Bft) 95,38 %
30.07.2020 09:00 19,0 C 24,6 C 27,3 C 77 % 1021,8 hPa 0,0 l/m 1,00 h 0,00 h 460 W/m 5,2 km/h (1 Bft) 96,74 %
30.07.2020 10:00 22,4 C 27,2 C 30,6 C 64 % 1021,7 hPa 0,0 l/m 1,00 h 0,00 h 618 W/m 6,2 km/h (2 Bft) 97,84 %
30.07.2020 11:00 24,2 C 28,9 C 23,4 C 57 % 1021,4 hPa 0,0 l/m 1,00 h 0,00 h 749 W/m 9,9 km/h (2 Bft) 97,86 %
30.07.2020 12:00 26,1 C 31,8 C 24,1 C 53 % 1021,3 hPa 0,0 l/m 1,00 h 0,00 h 865 W/m 8,0 km/h (2 Bft) 98,08 %
30.07.2020 13:00 28,2 C 33,4 C 26,1 C 49 % 1021,0 hPa 0,0 l/m 1,00 h 0,00 h 918 W/m 7,1 km/h (2 Bft) 97,01 %
30.07.2020 14:00 28,9 C 33,8 C 30,4 C 45 % 1020,3 hPa 0,0 l/m 1,00 h 0,00 h 901 W/m 7,2 km/h (2 Bft) 97,20 %
30.07.2020 15:00 29,7 C 34,0 C 27,7 C 43 % 1020,0 hPa 0,0 l/m 1,00 h 0,00 h 840 W/m 7,0 km/h (2 Bft) 97,94 %
30.07.2020 16:00 30,1 C 33,0 C 27,6 C 40 % 1019,5 hPa 0,0 l/m 1,00 h 0,00 h 729 W/m 9,8 km/h (2 Bft) 98,44 %
30.07.2020 17:00 30,0 C 32,6 C 27,6 C 41 % 1019,1 hPa 0,0 l/m 1,00 h 0,00 h 585 W/m 7,2 km/h (2 Bft) 97,31 %
30.07.2020 18:00 29,8 C 30,1 C 25,7 C 40 % 1018,6 hPa 0,0 l/m 1,00 h 0,00 h 415 W/m 6,9 km/h (2 Bft) 96,46 %
30.07.2020 19:00 28,7 C 26,4 C 23,4 C 43 % 1018,1 hPa 0,0 l/m 0,43 h 0,00 h 143 W/m 5,0 km/h (1 Bft) 95,87 %
30.07.2020 20:00 25,8 C 22,9 C 19,8 C 50 % 1018,1 hPa 0,0 l/m 0,00 h 0,00 h 24 W/m 1,5 km/h (1 Bft) 98,26 %
30.07.2020 21:00 23,4 C 20,8 C 17,9 C 54 % 1018,2 hPa 0,0 l/m 0,00 h 0,00 h 7 W/m 1,1 km/h (0 Bft) 97,35 %
30.07.2020 22:00 21,6 C 18,8 C 17,0 C 60 % 1018,5 hPa 0,0 l/m 0,00 h 0,00 h 0 W/m 0,1 km/h (0 Bft) 96,44 %
30.07.2020 23:00 19,9 C 17,6 C 16,2 C 64 % 1018,6 hPa 0,0 l/m 0,00 h 0,00 h 0 W/m 0,1 km/h (0 Bft) 96,64 %
31.07.2020 00:00 18,7 C 16,7 C 15,6 C 67 % 1018,6 hPa 0,0 l/m 0,00 h 0,00 h 0 W/m 0,4 km/h (0 Bft) 98,86 %
31.07.2020 01:00 17,7 C 15,9 C 15,0 C 70 % 1018,5 hPa 0,0 l/m 0,00 h 0,00 h 0 W/m 0,0 km/h (0 Bft) 96,93 %
31.07.2020 02:00 17,0 C 15,7 C 14,7 C 73 % 1018,4 hPa 0,0 l/m 0,00 h 0,00 h 0 W/m 0,3 km/h (0 Bft) 97,16 %
31.07.2020 03:00 16,5 C 14,6 C 14,0 C 75 % 1018,2 hPa 0,0 l/m 0,00 h 0,00 h 0 W/m 0,2 km/h (0 Bft) 97,07 %
31.07.2020 04:00 15,6 C 13,9 C 13,1 C 78 % 1018,2 hPa 0,0 l/m 0,00 h 0,00 h 0 W/m 0,0 km/h (0 Bft) 97,18 %
31.07.2020 05:00 15,0 C 13,8 C 12,8 C 81 % 1018,1 hPa 0,0 l/m 0,00 h 0,00 h 0 W/m 0,0 km/h (0 Bft) 97,31 %
31.07.2020 06:00 14,6 C 13,4 C 12,8 C 83 % 1017,9 hPa 0,0 l/m 0,00 h 0,00 h 10 W/m 0,0 km/h (0 Bft) 96,58 %
31.07.2020 07:00 14,7 C 15,1 C 13,5 C 87 % 1017,8 hPa 0,0 l/m 0,00 h 0,00 h 23 W/m 1,3 km/h (1 Bft) 96,41 %
31.07.2020 08:00 17,0 C 22,3 C 16,9 C 85 % 1017,9 hPa 0,0 l/m 0,17 h 0,00 h 93 W/m 5,0 km/h (1 Bft) 97,72 %
31.07.2020 09:00 23,2 C 29,2 C 33,9 C 65 % 1017,6 hPa 0,0 l/m 1,00 h 0,00 h 501 W/m 7,7 km/h (2 Bft) 97,15 %
31.07.2020 10:00 27,2 C 32,1 C 36,8 C 51 % 1017,5 hPa 0,0 l/m 1,00 h 0,00 h 666 W/m 12,3 km/h (3 Bft) 98,35 %
31.07.2020 11:00 29,9 C 35,2 C 28,7 C 46 % 1017,2 hPa 0,0 l/m 1,00 h 0,00 h 797 W/m 10,4 km/h (2 Bft) 97,71 %
31.07.2020 12:00 31,8 C 36,8 C 29,5 C 42 % 1016,7 hPa 0,0 l/m 1,00 h 0,00 h 885 W/m 12,9 km/h (3 Bft) 97,22 %
31.07.2020 13:00 33,1 C 38,1 C 31,8 C 40 % 1016,1 hPa 0,0 l/m 1,00 h 0,00 h 926 W/m 12,9 km/h (3 Bft) 91,86 %
31.07.2020 14:00 34,6 C 39,5 C 35,8 C 39 % 1015,5 hPa 0,0 l/m 1,00 h 0,00 h 917 W/m 10,0 km/h (2 Bft) 97,23 %
31.07.2020 15:00 35,7 C 40,1 C 34,1 C 39 % 1015,0 hPa 0,0 l/m 1,00 h 0,00 h 857 W/m 10,6 km/h (2 Bft) 97,64 %
31.07.2020 16:00 36,3 C 39,3 C 34,3 C 37 % 1014,4 hPa 0,0 l/m 1,00 h 0,00 h 751 W/m 13,1 km/h (3 Bft) 98,48 %
31.07.2020 17:00 36,8 C 39,1 C 33,8 C 37 % 1013,9 hPa 0,0 l/m 1,00 h 0,00 h 603 W/m 10,3 km/h (2 Bft) 99,51 %
31.07.2020 18:00 36,4 C 36,7 C 31,8 C 36 % 1013,3 hPa 0,0 l/m 1,00 h 0,00 h 424 W/m 10,8 km/h (2 Bft) 94,74 %
31.07.2020 19:00 34,8 C 32,1 C 29,1 C 42 % 1013,0 hPa 0,0 l/m 0,40 h 0,00 h 138 W/m 6,5 km/h (2 Bft) 96,78 %
31.07.2020 20:00 31,4 C 28,5 C 26,8 C 49 % 1013,0 hPa 0,0 l/m 0,00 h 0,00 h 23 W/m 5,1 km/h (1 Bft) 98,04 %
31.07.2020 21:00 28,9 C 25,6 C 24,4 C 54 % 1013,0 hPa 0,0 l/m 0,00 h 0,00 h 7 W/m 3,4 km/h (1 Bft) 99,66 %
31.07.2020 22:00 26,6 C 23,7 C 22,8 C 59 % 1013,0 hPa 0,0 l/m 0,00 h 0,00 h 0 W/m 3,4 km/h (1 Bft) 95,23 %
31.07.2020 23:00 24,9 C 22,3 C 21,3 C 63 % 1012,8 hPa 0,0 l/m 0,00 h 0,00 h 0 W/m 1,7 km/h (1 Bft) 97,65 %
01.08.2020 00:00 23,4 C 21,1 C 20,2 C 67 % 1012,6 hPa 0,0 l/m 0,00 h 0,00 h 0 W/m 1,0 km/h (0 Bft) 99,61 %
01.08.2020 01:00 23,1 C 23,0 C 21,6 C 67 % 1012,4 hPa 0,0 l/m 0,00 h 0,00 h 0 W/m 8,6 km/h (2 Bft) 95,71 %
01.08.2020 02:00 24,8 C 23,6 C 22,9 C 60 % 1012,3 hPa 0,0 l/m 0,00 h 0,00 h 0 W/m 9,3 km/h (2 Bft) 97,43 %
01.08.2020 03:00 24,5 C 23,3 C 22,5 C 60 % 1012,2 hPa 0,0 l/m 0,00 h 0,00 h 0 W/m 9,5 km/h (2 Bft) 99,36 %
01.08.2020 04:00 24,7 C 23,7 C 23,0 C 58 % 1012,1 hPa 0,0 l/m 0,00 h 0,00 h 0 W/m 15,1 km/h (3 Bft) 96,27 %
01.08.2020 05:00 24,3 C 22,8 C 22,2 C 61 % 1012,6 hPa 0,0 l/m 0,00 h 0,13 h 0 W/m 7,0 km/h (2 Bft) 96,44 %
01.08.2020 06:00 23,6 C 21,1 C 20,1 C 70 % 1012,8 hPa 0,0 l/m 0,00 h 0,13 h 9 W/m 1,3 km/h (1 Bft) 98,38 %
01.08.2020 07:00 22,8 C 22,3 C 21,1 C 75 % 1013,2 hPa 0,0 l/m 0,00 h 0,00 h 49 W/m 2,1 km/h (1 Bft) 97,52 %
01.08.2020 08:00 23,9 C 25,7 C 23,5 C 78 % 1013,2 hPa 0,0 l/m 0,20 h 0,00 h 145 W/m 5,0 km/h (1 Bft) 97,04 %
01.08.2020 09:00 25,3 C 24,6 C 23,8 C 73 % 1014,0 hPa 0,0 l/m 0,00 h 0,00 h 113 W/m 11,8 km/h (2 Bft) 97,57 %
01.08.2020 10:00 25,6 C 26,1 C 25,4 C 72 % 1014,5 hPa 0,0 l/m 0,07 h 0,00 h 249 W/m 17,8 km/h (3 Bft) 98,56 %
01.08.2020 11:00 26,2 C 27,4 C 26,1 C 70 % 1014,7 hPa 0,0 l/m 0,03 h 0,00 h 295 W/m 8,3 km/h (2 Bft) 92,99 %
01.08.2020 12:00 27,7 C 29,5 C 27,7 C 65 % 1014,6 hPa 0,0 l/m 0,27 h 0,00 h 355 W/m 7,4 km/h (2 Bft) 96,97 %
01.08.2020 13:00 30,0 C 35,4 C 29,1 C 58 % 1014,4 hPa 0,0 l/m 0,78 h 0,00 h 857 W/m 8,9 km/h (2 Bft) 98,80 %
01.08.2020 14:00 32,4 C 37,5 C 33,2 C 52 % 1014,0 hPa 0,0 l/m 1,00 h 0,00 h 862 W/m 9,2 km/h (2 Bft) 97,33 %
01.08.2020 15:00 33,4 C 36,8 C 31,0 C 53 % 1013,7 hPa 0,0 l/m 1,00 h 0,00 h 799 W/m 13,2 km/h (3 Bft) 96,49 %
01.08.2020 16:00 33,1 C 35,3 C 30,7 C 54 % 1013,8 hPa 0,0 l/m 1,00 h 0,00 h 647 W/m 11,7 km/h (2 Bft) 96,58 %
01.08.2020 17:00 32,0 C 32,4 C 29,0 C 56 % 1013,8 hPa 0,0 l/m 0,83 h 0,00 h 421 W/m 10,1 km/h (2 Bft) 98,00 %
01.08.2020 18:00 30,0 C 29,0 C 27,0 C 60 % 1013,7 hPa 0,0 l/m 0,37 h 0,00 h 233 W/m 10,3 km/h (2 Bft) 95,94 %
01.08.2020 19:00 27,6 C 26,5 C 25,5 C 69 % 1013,7 hPa 0,0 l/m 0,93 h 0,00 h 166 W/m 11,3 km/h (2 Bft) 99,29 %
01.08.2020 20:00 25,7 C 23,9 C 23,8 C 73 % 1014,3 hPa 0,0 l/m 0,10 h 0,00 h 36 W/m 10,7 km/h (2 Bft) 96,58 %
01.08.2020 21:00 23,9 C 21,9 C 22,0 C 76 % 1014,8 hPa 0,0 l/m 0,00 h 0,00 h 7 W/m 6,4 km/h (2 Bft) 96,46 %
01.08.2020 22:00 22,7 C 20,8 C 20,8 C 78 % 1015,0 hPa 0,0 l/m 0,00 h 0,00 h 0 W/m 4,3 km/h (1 Bft) 99,43 %
01.08.2020 23:00 22,1 C 20,9 C 20,9 C 72 % 1015,0 hPa 0,0 l/m 0,00 h 0,00 h 0 W/m 4,1 km/h (1 Bft) 96,23 %
02.08.2020 00:00 21,6 C 20,0 C 20,4 C 70 % 1015,0 hPa 0,0 l/m 0,00 h 0,00 h 0 W/m 3,5 km/h (1 Bft) 93,28 %
02.08.2020 01:00 21,2 C 19,9 C 20,0 C 72 % 1015,1 hPa 0,0 l/m 0,00 h 0,00 h 0 W/m 4,6 km/h (1 Bft) 99,27 %
02.08.2020 02:00 20,7 C 19,1 C 19,4 C 75 % 1015,1 hPa 0,0 l/m 0,00 h 0,00 h 0 W/m 5,3 km/h (1 Bft) 97,22 %
02.08.2020 03:00 20,1 C 18,7 C 18,9 C 78 % 1014,9 hPa 0,0 l/m 0,00 h 0,00 h 0 W/m 3,7 km/h (1 Bft) 95,94 %
02.08.2020 04:00 19,7 C 18,3 C 18,4 C 80 % 1014,7 hPa 0,0 l/m 0,00 h 0,00 h 0 W/m 2,8 km/h (1 Bft) 98,51 %
02.08.2020 05:00 19,3 C 18,0 C 18,3 C 81 % 1014,6 hPa 0,0 l/m 0,00 h 0,00 h 0 W/m 2,6 km/h (1 Bft) 97,58 %
02.08.2020 06:00 19,0 C 17,8 C 18,0 C 82 % 1014,5 hPa 0,0 l/m 0,00 h 0,00 h 12 W/m 1,2 km/h (1 Bft) 96,98 %
02.08.2020 07:00 18,6 C 17,6 C 17,5 C 83 % 1014,6 hPa 0,0 l/m 0,00 h 0,00 h 44 W/m 4,0 km/h (1 Bft) 96,72 %
02.08.2020 08:00 18,8 C 19,2 C 18,8 C 82 % 1014,7 hPa 0,0 l/m 0,00 h 0,00 h 123 W/m 7,0 km/h (2 Bft) 97,72 %
02.08.2020 09:00 19,6 C 20,2 C 20,2 C 79 % 1014,9 hPa 0,0 l/m 0,03 h 0,00 h 184 W/m 9,5 km/h (2 Bft) 97,65 %
02.08.2020 10:00 20,5 C 22,8 C 23,2 C 77 % 1015,1 hPa 0,0 l/m 0,70 h 0,00 h 391 W/m 12,9 km/h (3 Bft) 95,65 %
02.08.2020 11:00 22,4 C 24,9 C 23,4 C 73 % 1015,1 hPa 0,0 l/m 0,80 h 0,00 h 546 W/m 14,6 km/h (3 Bft) 99,43 %
02.08.2020 12:00 23,1 C 23,9 C 22,8 C 72 % 1015,2 hPa 0,0 l/m 0,20 h 0,00 h 306 W/m 11,8 km/h (2 Bft) 97,17 %
02.08.2020 13:00 22,1 C 23,1 C 22,1 C 76 % 1015,3 hPa 0,0 l/m 0,20 h 0,00 h 345 W/m 11,3 km/h (2 Bft) 95,30 %
02.08.2020 14:00 24,3 C 28,9 C 25,9 C 70 % 1015,1 hPa 0,0 l/m 0,85 h 0,00 h 755 W/m 10,0 km/h (2 Bft) 99,63 %
02.08.2020 15:00 24,8 C 24,7 C 23,3 C 66 % 1014,8 hPa 0,0 l/m 0,17 h 0,07 h 239 W/m 10,5 km/h (2 Bft) 97,10 %
02.08.2020 16:00 22,7 C 22,3 C 21,5 C 70 % 1014,7 hPa 0,0 l/m 0,00 h 0,00 h 153 W/m 7,6 km/h (2 Bft) 95,90 %
02.08.2020 17:00 22,8 C 22,9 C 21,6 C 69 % 1014,5 hPa 0,0 l/m 0,00 h 0,00 h 156 W/m 7,7 km/h (2 Bft) 98,07 %
02.08.2020 18:00 22,8 C 22,3 C 21,3 C 65 % 1014,4 hPa 0,0 l/m 0,00 h 0,00 h 90 W/m 8,5 km/h (2 Bft) 98,55 %
02.08.2020 19:00 22,1 C 21,0 C 20,6 C 65 % 1014,6 hPa 0,0 l/m 0,00 h 0,00 h 49 W/m 11,0 km/h (2 Bft) 96,73 %
02.08.2020 20:00 21,6 C 20,5 C 20,0 C 65 % 1014,9 hPa 0,0 l/m 0,20 h 0,00 h 40 W/m 8,4 km/h (2 Bft) 96,64 %
02.08.2020 21:00 20,9 C 19,2 C 19,1 C 66 % 1015,3 hPa 0,0 l/m 0,00 h 0,00 h 6 W/m 7,2 km/h (2 Bft) 98,29 %
02.08.2020 22:00 19,5 C 17,0 C 17,1 C 69 % 1015,5 hPa 0,0 l/m 0,00 h 0,00 h 0 W/m 4,2 km/h (1 Bft) 95,46 %
02.08.2020 23:00 17,9 C 15,2 C 15,2 C 72 % 1015,5 hPa 0,0 l/m 0,00 h 0,00 h 0 W/m 0,6 km/h (0 Bft) 95,23 %
Min-Datum _ 30.07.20 30.07.20 30.07.20 31.07.20 27.07.20 - - - - 27.07.20 02.08.20
_ Min-Zeit 06:26 04:44 04:28 17:44 19:52 - - - - 00:00 00:02
Minimum _ 11,9 C 10,6 C 10,6 C 34 % 1006,5 hPa - - - - 0,0 km/h (0 Bft) 9,09 %
Max-Datum _ 31.07.20 31.07.20 31.07.20 30.07.20 30.07.20 27.07.20 01.08.20 27.07.20 28.07.20 01.08.20 27.07.20
_ Max-Zeit 17:28 16:24 14:08 07:42 08:56 10:22 13:16 10:30 13:26 10:12 00:08
Maximum _ 37,0 C 41,1 C 41,7 C 93 % 1021,9 hPa 0,2 l/m 0,08 h 0,07 h 1121 W/m 38,6 km/h
SO (5 Bft)
100,00 %
Durchschnitt _ 22,3 C 22,5 C 21,0 C 67 % 1015,6 hPa #0,6 l/m #45:58 h #2:04 h 333 W/m 7,6 km/h (2 Bft) 97,18 %
© 2020 W. Hausmann